Time;durP1;ratioP1;P1;durP2;ratioP2;P2;SDS_P1;SDS_P2;PMS_P1;PMS_P2;Temp;Humidity;BMP_temperature;BMP_pressure;BME280_temperature;BME280_humidity;BME280_pressure;Samples;Min_cycle;Max_cycle;Signal;HPM_P1;HPM_P2
2021/11/29 00:04:18;;;;;;;42.53;17.97;;;;;;;3.01;100.00;98325.51;715392;1199;114674;-75
2021/11/29 00:19:21;;;;;;;44.80;19.95;;;;;;;2.94;100.00;98304.51;715187;1199;113462;-75
2021/11/29 00:34:24;;;;;;;31.23;13.23;;;;;;;2.95;100.00;98305.31;714529;1199;115101;-74
2021/11/29 00:49:26;;;;;;;25.63;12.33;;;;;;;2.93;100.00;98283.89;714818;1174;114940;-74
2021/11/29 01:04:29;;;;;;;34.30;13.10;;;;;;;2.87;100.00;98261.95;714813;1200;114275;-74
2021/11/29 01:19:31;;;;;;;32.40;14.83;;;;;;;2.86;100.00;98267.27;713778;1199;113678;-74
2021/11/29 01:34:34;;;;;;;23.68;11.05;;;;;;;2.89;100.00;98264.41;713795;1199;114536;-74
2021/11/29 01:49:37;;;;;;;51.68;29.30;;;;;;;2.92;100.00;98261.56;713820;1199;114397;-75
2021/11/29 02:04:40;;;;;;;18.30;10.10;;;;;;;2.90;100.00;98237.55;714102;1175;114091;-75
2021/11/29 02:19:45;;;;;;;21.23;9.30;;;;;;;2.93;100.00;98250.22;714027;1184;113818;-75
2021/11/29 02:34:48;;;;;;;19.53;8.73;;;;;;;2.97;100.00;98246.43;714019;1199;113532;-75
2021/11/29 02:49:51;;;;;;;20.25;10.28;;;;;;;2.95;100.00;98231.00;714169;1174;113939;-75
2021/11/29 03:04:53;;;;;;;19.15;9.00;;;;;;;3.00;100.00;98235.79;713789;1178;115352;-75
2021/11/29 03:19:55;;;;;;;22.83;11.70;;;;;;;2.97;100.00;98199.80;713819;1200;113478;-74
2021/11/29 03:34:58;;;;;;;18.08;10.48;;;;;;;2.99;100.00;98200.47;714014;1202;114510;-75
2021/11/29 03:50:03;;;;;;;16.23;8.13;;;;;;;2.94;100.00;98187.95;714168;1202;113757;-74
2021/11/29 04:05:06;;;;;;;13.60;7.68;;;;;;;2.97;100.00;98169.52;714110;1174;113551;-74
2021/11/29 04:20:13;;;;;;;19.37;8.80;;;;;;;2.96;100.00;98185.21;713810;1202;115084;-74
2021/11/29 04:35:17;;;;;;;15.80;8.47;;;;;;;2.94;100.00;98192.29;714097;1174;113512;-75
2021/11/29 04:50:19;;;;;;;62.33;24.87;;;;;;;2.99;100.00;98200.47;714374;1200;113431;-74
2021/11/29 05:05:21;;;;;;;36.10;15.28;;;;;;;2.95;100.00;98193.93;714436;1200;115429;-75
2021/11/29 05:20:24;;;;;;;23.45;11.38;;;;;;;2.93;100.00;98198.42;714581;1200;113634;-75
2021/11/29 05:35:26;;;;;;;29.03;13.55;;;;;;;2.97;100.00;98205.80;714487;1199;114177;-74
2021/11/29 05:50:28;;;;;;;20.90;8.90;;;;;;;2.91;100.00;98226.25;714352;1173;114905;-75
2021/11/29 06:05:32;;;;;;;19.78;8.85;;;;;;;2.88;100.00;98235.11;717259;1165;113864;-76
2021/11/29 06:20:35;;;;;;;41.83;16.33;;;;;;;2.91;100.00;98221.06;714052;1199;113488;-77
2021/11/29 06:35:38;;;;;;;42.18;17.05;;;;;;;2.86;100.00;98244.77;714201;1175;113636;-76
2021/11/29 06:50:41;;;;;;;33.65;15.95;;;;;;;2.86;100.00;98247.36;714516;1200;113970;-75
2021/11/29 07:05:43;;;;;;;37.13;16.63;;;;;;;2.85;100.00;98263.88;715152;1203;113613;-75
2021/11/29 07:20:46;;;;;;;45.97;19.20;;;;;;;2.86;100.00;98249.14;715595;1177;113782;-75
2021/11/29 07:35:49;;;;;;;30.75;15.83;;;;;;;2.99;100.00;98239.33;715013;1202;114449;-73
2021/11/29 07:50:54;;;;;;;28.17;12.13;;;;;;;3.06;100.00;98227.47;715178;1200;113691;-73
2021/11/29 08:05:56;;;;;;;125.03;44.17;;;;;;;3.10;100.00;98241.78;715058;1199;113995;-71
2021/11/29 08:20:59;;;;;;;232.08;90.85;;;;;;;3.07;100.00;98242.04;717074;1199;114040;-71
2021/11/29 08:36:02;;;;;;;180.97;75.73;;;;;;;3.18;100.00;98261.00;718159;1202;113789;-72
2021/11/29 08:51:10;;;;;;;65.80;26.83;;;;;;;3.29;100.00;98273.82;716097;1202;114273;-73
2021/11/29 09:06:13;;;;;;;47.30;19.80;;;;;;;3.31;100.00;98258.94;715029;1199;114654;-75
2021/11/29 09:21:20;;;;;;;37.48;16.60;;;;;;;3.26;100.00;98263.71;714949;1199;114247;-73
2021/11/29 09:36:22;;;;;;;45.03;21.00;;;;;;;3.42;100.00;98258.80;715674;1199;114082;-74
2021/11/29 09:51:25;;;;;;;87.27;36.50;;;;;;;3.59;100.00;98246.05;715436;1199;114548;-75
2021/11/29 10:06:28;;;;;;;59.80;27.60;;;;;;;3.54;100.00;98228.34;716006;1202;113766;-75
2021/11/29 10:21:32;;;;;;;51.37;22.10;;;;;;;3.66;100.00;98210.84;716380;1199;115413;-74
2021/11/29 10:36:42;;;;;;;;;;;;;;;3.58;100.00;98228.89;715130;1199;114489;-74
2021/11/29 10:51:48;;;;;;;29.35;13.43;;;;;;;3.66;100.00;98247.14;715099;1199;100617;-74
2021/11/29 11:06:56;;;;;;;25.60;13.07;;;;;;;3.68;100.00;98262.56;715007;1177;113864;-79
2021/11/29 11:22:21;;;;;;;42.90;20.08;;;;;;;3.68;100.00;98236.63;715908;1199;113828;-77
2021/11/29 11:37:29;;;;;;;89.53;31.38;;;;;;;3.68;100.00;98254.78;716548;1199;113063;-78
2021/11/29 11:52:32;;;;;;;103.10;32.47;;;;;;;3.74;100.00;98239.47;715085;1199;114423;-75
2021/11/29 12:07:35;;;;;;;58.00;22.40;;;;;;;3.93;100.00;98235.17;715019;1199;114127;-76
2021/11/29 12:22:37;;;;;;;49.38;22.58;;;;;;;3.88;100.00;98240.80;715009;1199;114701;-73
2021/11/29 12:37:43;;;;;;;19.77;10.47;;;;;;;3.79;100.00;98247.64;714705;1199;113306;-76
2021/11/29 12:52:46;;;;;;;23.98;12.23;;;;;;;3.87;100.00;98243.51;714045;1200;114081;-77
2021/11/29 13:08:20;;;;;;;35.50;15.68;;;;;;;3.79;100.00;98242.45;714333;1199;113628;-83
2021/11/29 13:23:23;;;;;;;28.33;14.50;;;;;;;3.78;100.00;98253.78;714293;1175;113837;-76
2021/11/29 13:38:27;;;;;;;35.60;16.35;;;;;;;3.80;100.00;98262.25;714489;1176;115280;-78
2021/11/29 13:53:33;;;;;;;35.03;13.70;;;;;;;3.79;100.00;98272.78;714226;1199;113939;-76
2021/11/29 14:08:38;;;;;;;27.68;12.85;;;;;;;3.87;100.00;98285.02;714484;1177;114331;-75
2021/11/29 14:23:44;;;;;;;23.93;11.08;;;;;;;3.96;100.00;98297.98;714352;1200;114175;-75
2021/11/29 14:38:48;;;;;;;19.28;9.13;;;;;;;3.95;100.00;98313.69;714074;1199;113758;-73
2021/11/29 14:53:50;;;;;;;557.18;198.40;;;;;;;3.92;100.00;98329.52;714858;1189;114654;-72
2021/11/29 15:09:02;;;;;;;973.57;365.07;;;;;;;3.96;100.00;98356.84;715122;1200;114308;-75
2021/11/29 15:24:05;;;;;;;307.10;115.23;;;;;;;3.99;100.00;98361.74;715234;1200;114233;-74
2021/11/29 15:39:08;;;;;;;81.27;35.83;;;;;;;3.90;100.00;98376.36;715084;1174;114790;-73
2021/11/29 15:54:14;;;;;;;129.73;55.15;;;;;;;3.92;100.00;98392.62;714883;1199;114401;-72
2021/11/29 16:09:18;;;;;;;44.60;20.25;;;;;;;3.90;100.00;98422.25;714898;1203;114131;-72
2021/11/29 16:24:20;;;;;;;106.10;32.80;;;;;;;3.78;100.00;98445.73;714863;1199;113945;-72
2021/11/29 16:39:24;;;;;;;284.43;79.03;;;;;;;3.68;100.00;98454.47;715064;1200;115682;-73
2021/11/29 16:54:26;;;;;;;464.55;139.00;;;;;;;3.84;100.00;98470.32;716531;1200;114749;-72
2021/11/29 17:09:29;;;;;;;371.20;122.35;;;;;;;3.81;100.00;98483.55;715020;1200;115082;-72
2021/11/29 17:24:32;;;;;;;277.08;95.25;;;;;;;3.66;100.00;98490.91;714891;1178;114092;-75
2021/11/29 17:39:35;;;;;;;317.98;106.95;;;;;;;3.45;100.00;98504.80;715183;1199;113886;-75
2021/11/29 17:54:40;;;;;;;119.63;46.93;;;;;;;3.09;100.00;98519.97;715187;1199;114424;-74
2021/11/29 18:25:18;;;;;;;36.65;18.98;;;;;;;3.23;100.00;98517.97;714850;1199;114692;-74
2021/11/29 18:40:22;;;;;;;35.65;16.50;;;;;;;3.36;100.00;98507.38;714344;1178;114132;-74
2021/11/29 18:55:26;;;;;;;22.50;12.23;;;;;;;3.29;100.00;98525.23;714349;1203;114989;-75
2021/11/29 19:10:30;;;;;;;16.85;8.98;;;;;;;3.21;100.00;98525.04;714377;1191;113746;-74
2021/11/29 19:25:33;;;;;;;36.13;14.15;;;;;;;3.11;100.00;98531.01;714523;1177;113403;-75
2021/11/29 19:40:43;;;;;;;29.55;17.43;;;;;;;2.99;100.00;98539.83;714289;1200;114671;-77
2021/11/29 19:55:46;;;;;;;59.93;25.07;;;;;;;3.16;100.00;98546.18;714246;1193;114326;-75
2021/11/29 20:10:49;;;;;;;21.43;9.45;;;;;;;3.29;100.00;98558.92;714199;1203;115604;-76
2021/11/29 20:25:52;;;;;;;22.55;9.50;;;;;;;3.35;100.00;98583.48;713954;1199;114830;-74
2021/11/29 20:40:57;;;;;;;34.65;11.78;;;;;;;3.33;100.00;98586.22;714169;1180;115430;-75
2021/11/29 20:56:00;;;;;;;21.85;9.40;;;;;;;3.34;100.00;98611.20;714000;1199;114697;-74
2021/11/29 21:11:03;;;;;;;226.85;65.88;;;;;;;3.40;100.00;98640.95;714092;1179;113679;-75
2021/11/29 21:26:06;;;;;;;50.53;20.80;;;;;;;3.07;100.00;98625.50;714154;1199;114392;-77
2021/11/29 21:41:09;;;;;;;33.98;12.33;;;;;;;2.83;100.00;98636.95;715800;1177;113796;-76
2021/11/29 21:56:12;;;;;;;27.60;10.13;;;;;;;2.61;100.00;98644.83;715333;1200;113955;-76
2021/11/29 22:11:14;;;;;;;15.10;6.08;;;;;;;2.57;100.00;98644.25;715018;1176;113231;-76
2021/11/29 22:26:17;;;;;;;21.60;9.85;;;;;;;2.66;100.00;98659.03;714862;1177;113611;-75
2021/11/29 22:41:20;;;;;;;19.65;6.93;;;;;;;2.75;100.00;98652.30;714803;1178;114952;-76
2021/11/29 22:56:23;;;;;;;10.13;5.63;;;;;;;2.60;100.00;98654.38;714722;1176;114120;-76
2021/11/29 23:11:30;;;;;;;13.85;6.35;;;;;;;2.57;100.00;98682.27;714859;1177;113648;-76
2021/11/29 23:26:33;;;;;;;8.65;4.93;;;;;;;2.59;100.00;98688.97;715339;1176;113763;-76
2021/11/29 23:41:39;;;;;;;11.48;6.38;;;;;;;2.55;100.00;98699.69;714991;1199;114406;-77
2021/11/29 23:56:43;;;;;;;9.38;5.13;;;;;;;2.54;100.00;98724.77;714619;1200;113613;-76
